Time;durP1;ratioP1;P1;durP2;ratioP2;P2;SDS_P1;SDS_P2;PMS_P1;PMS_P2;Temp;Humidity;BMP_temperature;BMP_pressure;BME280_temperature;BME280_humidity;BME280_pressure;Samples;Min_cycle;Max_cycle;Signal;HPM_P1;HPM_P2
2023/01/02 00:02:05;;;;;;;14.57;13.20;;;;;;;21.78;41.27;96408.75;6150791;28;103576;-81
2023/01/02 00:05:09;;;;;;;14.80;13.50;;;;;;;21.79;41.25;96407.66;6167005;28;106502;-80
2023/01/02 00:08:12;;;;;;;15.43;14.03;;;;;;;21.78;41.38;96406.06;6167309;28;104853;-81
2023/01/02 00:11:15;;;;;;;14.43;13.07;;;;;;;20.99;40.84;96282.34;6160098;28;103230;-80
2023/01/02 00:14:18;;;;;;;15.07;13.57;;;;;;;21.80;41.36;96403.94;6167797;28;103259;-80
2023/01/02 00:17:22;;;;;;;15.27;13.87;;;;;;;21.62;41.02;96378.66;6167796;28;104335;-81
2023/01/02 00:20:26;;;;;;;14.90;13.50;;;;;;;21.78;41.21;96400.75;6164235;28;103595;-80
2023/01/02 00:23:29;;;;;;;14.90;13.50;;;;;;;21.78;41.00;96403.41;6157802;28;106338;-80
2023/01/02 00:26:32;;;;;;;13.90;12.67;;;;;;;21.68;40.80;96388.25;6167060;28;103703;-80
2023/01/02 00:29:35;;;;;;;14.00;12.70;;;;;;;21.64;40.70;96368.53;6167915;28;102872;-82
2023/01/02 00:32:40;;;;;;;14.00;12.80;;;;;;;21.73;40.98;96385.56;6169165;28;103099;-79
2023/01/02 00:35:43;;;;;;;14.73;12.30;;;;;;;21.62;40.83;96368.00;6162584;28;104352;-81
2023/01/02 00:38:46;;;;;;;14.67;13.33;;;;;;;21.42;41.16;96336.09;6168167;28;106656;-80
2023/01/02 00:41:49;;;;;;;14.30;12.93;;;;;;;21.54;41.10;96357.91;6157283;28;102862;-80
2023/01/02 00:44:52;;;;;;;13.77;12.57;;;;;;;21.57;40.53;96364.56;6165292;28;108227;-81
2023/01/02 00:47:58;;;;;;;14.80;13.40;;;;;;;21.75;40.37;96387.97;6155072;28;103387;-81
2023/01/02 00:51:01;;;;;;;15.10;13.60;;;;;;;21.73;40.19;96390.09;6169943;28;103066;-81
2023/01/02 00:54:04;;;;;;;14.03;12.80;;;;;;;21.43;40.47;96343.00;6168996;28;106141;-83
2023/01/02 00:57:07;;;;;;;14.97;13.57;;;;;;;21.73;40.31;96388.25;6161993;28;106379;-81
2023/01/02 01:00:12;;;;;;;12.93;11.83;;;;;;;21.73;39.82;96393.56;6166935;28;103323;-81
2023/01/02 01:03:25;;;;;;;14.40;13.10;;;;;;;21.50;40.38;96354.19;6169484;28;104842;-80
2023/01/02 01:06:28;;;;;;;14.37;13.07;;;;;;;21.73;40.42;96390.09;6168489;28;104680;-81
2023/01/02 01:09:31;;;;;;;14.53;13.13;;;;;;;21.73;39.94;96390.91;6155087;28;103436;-80
2023/01/02 01:12:34;;;;;;;13.87;12.67;;;;;;;21.62;39.86;96373.34;6165478;28;103593;-80
2023/01/02 01:15:37;;;;;;;14.40;13.10;;;;;;;21.61;40.17;96374.41;6167606;28;106306;-80
2023/01/02 01:18:43;;;;;;;15.00;13.57;;;;;;;21.73;40.10;96390.91;6168844;28;103164;-80
2023/01/02 01:21:49;;;;;;;14.10;12.80;;;;;;;21.46;39.97;96353.91;6159509;28;103418;-80
2023/01/02 01:24:52;;;;;;;14.70;13.40;;;;;;;21.71;39.70;96387.72;6168093;28;106737;-80
2023/01/02 01:27:55;;;;;;;15.23;13.83;;;;;;;21.69;40.09;96387.19;6167880;28;105075;-80
2023/01/02 01:31:02;;;;;;;15.60;14.10;;;;;;;21.71;39.67;96382.38;6165363;28;103203;-80
2023/01/02 01:34:07;;;;;;;17.10;15.50;;;;;;;20.64;39.68;96214.00;6164829;28;102877;-81
2023/01/02 01:37:10;;;;;;;15.53;14.13;;;;;;;21.70;39.28;96386.13;6168756;28;105152;-80
2023/01/02 01:40:13;;;;;;;16.70;15.20;;;;;;;21.49;39.22;96345.38;6166718;28;103261;-81
2023/01/02 01:43:16;;;;;;;16.20;14.70;;;;;;;21.39;39.20;96340.09;6160565;28;103158;-81
2023/01/02 01:46:26;;;;;;;16.97;15.40;;;;;;;21.15;39.57;96296.47;6168249;28;103944;-80
2023/01/02 01:49:31;;;;;;;16.40;14.90;;;;;;;21.48;39.19;96343.78;6161523;28;106333;-81
2023/01/02 01:52:41;;;;;;;18.00;16.30;;;;;;;21.63;39.21;96368.81;6168066;28;103457;-80
2023/01/02 01:55:50;;;;;;;16.93;15.43;;;;;;;21.56;39.45;96358.44;6160994;28;106463;-81
2023/01/02 01:58:53;;;;;;;17.60;16.10;;;;;;;21.47;39.11;96339.53;6162769;28;106654;-80
2023/01/02 02:01:57;;;;;;;16.60;15.10;;;;;;;21.69;39.13;96373.06;6166914;28;102987;-82
2023/01/02 02:05:06;;;;;;;17.80;16.20;;;;;;;21.47;39.00;96339.53;6150156;28;105741;-81
2023/01/02 02:08:16;;;;;;;18.23;16.57;;;;;;;21.67;39.32;96369.84;6163560;28;103429;-81
2023/01/02 02:11:19;;;;;;;18.53;16.93;;;;;;;21.50;39.42;96338.19;6165676;28;103351;-80
2023/01/02 02:14:22;;;;;;;17.60;16.10;;;;;;;21.68;39.36;96374.16;6169122;28;103151;-81
2023/01/02 02:17:36;;;;;;;17.50;16.00;;;;;;;21.37;39.15;96322.81;6159582;28;103943;-82
2023/01/02 02:20:50;;;;;;;18.47;16.57;;;;;;;21.66;39.25;96378.91;6166225;28;105599;-83
2023/01/02 02:24:17;;;;;;;17.50;15.93;;;;;;;21.44;39.26;96353.41;6160627;28;108406;-80
2023/01/02 02:27:43;;;;;;;17.40;15.90;;;;;;;21.13;38.82;96290.59;6168228;28;103016;-80
2023/01/02 02:30:54;;;;;;;17.40;15.70;;;;;;;21.57;38.86;96365.38;6161521;28;104305;-81
2023/01/02 02:34:00;;;;;;;17.30;15.70;;;;;;;21.64;38.90;96375.72;6163465;28;105336;-80
2023/01/02 02:37:12;;;;;;;18.10;16.43;;;;;;;20.98;39.32;96267.44;6167434;28;103501;-80
2023/01/02 02:40:19;;;;;;;18.07;16.47;;;;;;;21.59;39.30;96365.09;6159127;28;105686;-81
2023/01/02 02:43:34;;;;;;;17.77;16.07;;;;;;;21.65;39.54;96367.47;6166623;28;104475;-80
2023/01/02 02:46:48;;;;;;;16.37;14.90;;;;;;;21.53;39.30;96359.00;6166892;28;102743;-81
2023/01/02 02:50:01;;;;;;;16.67;15.20;;;;;;;21.65;39.46;96374.66;6168480;28;103301;-82
2023/01/02 02:53:10;;;;;;;17.57;15.90;;;;;;;21.16;39.17;96290.06;6159139;28;102797;-80
2023/01/02 02:56:17;;;;;;;18.17;16.27;;;;;;;21.51;39.02;96340.63;6167592;28;103448;-82
2023/01/02 02:59:20;;;;;;;17.30;15.70;;;;;;;21.02;39.54;96271.19;6167867;28;105192;-83
2023/01/02 03:02:25;;;;;;;16.97;15.43;;;;;;;21.56;39.00;96350.44;6165873;28;104163;-83
2023/01/02 03:05:35;;;;;;;17.40;15.80;;;;;;;21.61;38.80;96355.75;6166146;28;103639;-83
2023/01/02 03:08:44;;;;;;;17.30;15.70;;;;;;;21.60;38.96;96343.50;6169654;28;106293;-83
2023/01/02 03:11:55;;;;;;;17.03;15.43;;;;;;;20.25;39.12;96123.38;6168757;28;103930;-83
2023/01/02 03:15:07;;;;;;;17.70;16.10;;;;;;;21.49;39.20;96315.28;6162898;28;103637;-84
2023/01/02 03:18:23;;;;;;;17.37;15.83;;;;;;;21.56;38.97;96321.16;6156125;28;103623;-84
2023/01/02 03:21:32;;;;;;;17.57;16.07;;;;;;;20.81;39.24;96203.88;6167104;28;103472;-83
2023/01/02 03:24:38;;;;;;;17.97;16.37;;;;;;;21.31;39.13;96282.06;6168961;28;103199;-82
2023/01/02 03:27:51;;;;;;;16.63;15.23;;;;;;;20.93;38.69;96211.59;6165382;28;103343;-84
2023/01/02 03:31:00;;;;;;;18.60;16.90;;;;;;;21.62;38.58;96327.25;6175129;28;105422;-84
2023/01/02 03:34:13;;;;;;;18.80;17.10;;;;;;;20.46;38.64;96142.75;6173735;28;103313;-84
2023/01/02 03:37:21;;;;;;;18.63;16.90;;;;;;;21.44;39.07;96302.78;6165785;28;105317;-82
2023/01/02 03:40:28;;;;;;;16.93;15.43;;;;;;;21.63;38.52;96336.84;6169433;28;105254;-85
2023/01/02 03:43:35;;;;;;;18.37;16.70;;;;;;;21.19;38.78;96285.03;6173306;28;102491;-84
2023/01/02 03:46:45;;;;;;;18.33;16.73;;;;;;;21.38;38.34;96329.72;6172695;28;103254;-83
2023/01/02 03:49:53;;;;;;;18.30;16.67;;;;;;;21.57;38.46;96353.91;6145603;28;105272;-84
2023/01/02 03:52:57;;;;;;;18.33;16.63;;;;;;;21.47;38.55;96342.19;6173860;28;103776;-84
2023/01/02 03:56:16;;;;;;;18.30;16.50;;;;;;;20.98;38.42;96266.66;6172894;28;102926;-85
2023/01/02 03:59:30;;;;;;;18.47;16.87;;;;;;;20.86;38.75;96259.75;6171364;28;103295;-84
2023/01/02 04:02:42;;;;;;;17.90;16.40;;;;;;;21.56;38.09;96373.63;6171140;28;102962;-84
2023/01/02 04:05:52;;;;;;;17.93;16.40;;;;;;;21.61;38.55;96384.25;6173694;28;102864;-83
2023/01/02 04:09:03;;;;;;;19.30;17.60;;;;;;;21.51;38.33;96364.59;6171396;28;103887;-83
2023/01/02 04:12:11;;;;;;;20.40;18.30;;;;;;;20.87;38.25;96271.19;6168872;28;102845;-83
2023/01/02 04:15:23;;;;;;;19.10;17.30;;;;;;;20.87;38.34;96271.19;6173728;28;103787;-84
2023/01/02 04:18:32;;;;;;;19.70;17.90;;;;;;;20.82;37.81;96266.66;6173525;28;105560;-84
2023/01/02 04:21:51;;;;;;;20.80;18.60;;;;;;;21.59;38.27;96389.88;6171324;28;103071;-82
2023/01/02 04:25:07;;;;;;;20.03;18.03;;;;;;;21.46;38.41;96388.53;6169710;28;104038;-84
2023/01/02 04:28:18;;;;;;;20.97;19.10;;;;;;;20.92;38.24;96295.94;6172020;28;105311;-84
2023/01/02 04:31:28;;;;;;;19.70;17.97;;;;;;;20.73;38.19;96256.84;6171630;28;103493;-83
2023/01/02 04:34:36;;;;;;;19.27;17.37;;;;;;;21.59;38.09;96397.84;6167098;28;105249;-85
2023/01/02 04:37:42;;;;;;;20.20;18.37;;;;;;;21.61;38.14;96400.25;6171493;28;103354;-83
2023/01/02 04:40:46;;;;;;;19.50;17.70;;;;;;;21.57;38.03;96402.66;6168576;28;105452;-83
2023/01/02 04:43:49;;;;;;;21.20;19.20;;;;;;;21.22;37.99;96350.25;6169075;28;103444;-83
2023/01/02 04:46:54;;;;;;;20.00;18.17;;;;;;;21.54;38.30;96400.53;6165982;28;103330;-84
2023/01/02 04:50:01;;;;;;;21.13;19.20;;;;;;;21.58;37.86;96406.91;6174432;28;103131;-84
2023/01/02 04:53:16;;;;;;;20.33;18.43;;;;;;;21.59;37.91;96405.84;6174280;28;103308;-84
2023/01/02 04:56:34;;;;;;;20.70;19.00;;;;;;;21.61;37.65;96403.72;6174845;28;103425;-85
2023/01/02 04:59:43;;;;;;;20.50;18.67;;;;;;;20.92;37.58;96292.47;6148634;28;105377;-85
2023/01/02 05:02:52;;;;;;;20.97;19.00;;;;;;;21.63;37.60;96398.09;6170515;28;104058;-83
2023/01/02 05:06:00;;;;;;;20.27;18.47;;;;;;;21.60;37.44;96398.66;6170733;28;103564;-82
2023/01/02 05:09:04;;;;;;;21.33;19.43;;;;;;;21.50;37.72;96384.28;6165585;28;103370;-82
2023/01/02 05:12:08;;;;;;;20.13;18.33;;;;;;;21.62;37.80;96409.84;6171110;28;102887;-83
2023/01/02 05:15:12;;;;;;;20.63;18.77;;;;;;;21.48;37.58;96389.06;6171572;28;103834;-84
2023/01/02 05:18:15;;;;;;;20.77;18.97;;;;;;;21.59;37.23;96399.72;6171712;28;104554;-83
2023/01/02 05:24:41;;;;;;;21.00;19.10;;;;;;;21.57;37.35;96402.66;6169318;28;103146;-84
2023/01/02 05:27:46;;;;;;;20.70;18.90;;;;;;;20.98;37.39;96306.56;6171864;28;103545;-85
2023/01/02 05:30:52;;;;;;;21.23;19.30;;;;;;;21.56;37.68;96385.06;6166734;28;103331;-82
2023/01/02 05:34:02;;;;;;;21.37;19.47;;;;;;;20.50;37.52;96224.41;6175485;28;103431;-86
2023/01/02 05:37:06;;;;;;;20.77;18.97;;;;;;;20.87;37.30;96279.19;6177927;28;102660;-86
2023/01/02 05:40:16;;;;;;;20.00;18.30;;;;;;;21.34;37.36;96364.09;6153574;28;103213;-86
2023/01/02 05:43:21;;;;;;;20.50;18.50;;;;;;;20.97;37.28;96299.66;6171149;28;104747;-84
2023/01/02 05:46:30;;;;;;;21.07;19.07;;;;;;;20.92;37.14;96298.59;6177214;28;102521;-86
2023/01/02 05:49:52;;;;;;;19.67;17.83;;;;;;;21.52;37.02;96395.47;6175126;28;102638;-84
2023/01/02 05:53:01;;;;;;;20.53;18.33;;;;;;;20.74;37.31;96267.22;6158889;28;103109;-85
2023/01/02 05:56:14;;;;;;;20.30;18.40;;;;;;;21.56;37.13;96389.63;6175884;28;102712;-85
2023/01/02 05:59:19;;;;;;;19.87;18.17;;;;;;;21.54;37.35;96397.06;6175455;28;106219;-85
2023/01/02 06:02:25;;;;;;;20.03;18.23;;;;;;;20.13;37.64;96187.38;6174448;28;103557;-85
2023/01/02 06:05:34;;;;;;;19.43;17.63;;;;;;;21.55;37.64;96398.66;6170966;28;103620;-84
2023/01/02 06:08:40;;;;;;;20.40;18.27;;;;;;;20.80;37.79;96271.44;6167425;28;102941;-83
2023/01/02 06:11:51;;;;;;;21.67;19.30;;;;;;;20.72;37.84;96282.63;6159717;28;103083;-83
2023/01/02 06:15:02;;;;;;;20.83;18.63;;;;;;;20.99;37.56;96321.47;6175935;28;103593;-86
2023/01/02 06:18:09;;;;;;;21.00;19.10;;;;;;;20.86;37.71;96307.66;6168558;28;103263;-83
2023/01/02 06:21:14;;;;;;;22.73;20.47;;;;;;;21.32;37.51;96389.34;6169878;28;105240;-83
2023/01/02 06:24:17;;;;;;;43.27;21.30;;;;;;;21.44;37.83;96411.97;6171818;28;104793;-84
2023/01/02 06:27:23;;;;;;;22.03;19.93;;;;;;;21.34;38.04;96401.34;6171568;28;103491;-80
2023/01/02 06:30:27;;;;;;;21.70;19.40;;;;;;;21.30;37.83;96396.81;6169202;28;103860;-82
2023/01/02 06:33:30;;;;;;;20.83;19.03;;;;;;;21.47;37.53;96438.06;6162137;28;103599;-81
2023/01/02 06:36:34;;;;;;;23.17;21.17;;;;;;;21.53;37.57;96446.88;6144272;28;103397;-81
2023/01/02 06:39:38;;;;;;;22.23;20.23;;;;;;;21.53;37.39;96444.22;6137536;28;103337;-81
2023/01/02 06:42:44;;;;;;;22.20;20.10;;;;;;;21.51;37.12;96439.16;6168683;28;108382;-82
2023/01/02 06:45:48;;;;;;;23.57;21.50;;;;;;;21.51;36.89;96433.84;6162089;28;105339;-82
2023/01/02 06:48:51;;;;;;;22.63;20.33;;;;;;;21.51;36.93;96427.72;6168970;28;102778;-80
2023/01/02 06:51:54;;;;;;;23.10;21.07;;;;;;;21.48;36.65;96436.22;6160179;28;104441;-81
2023/01/02 06:54:57;;;;;;;22.17;20.07;;;;;;;21.36;36.79;96420.53;6166418;28;103383;-81
2023/01/02 06:58:02;;;;;;;22.13;20.27;;;;;;;21.45;36.55;96434.88;6168370;28;102911;-81
2023/01/02 07:01:16;;;;;;;20.87;19.03;;;;;;;21.38;36.81;96431.72;6161251;28;102764;-79
2023/01/02 07:04:22;;;;;;;22.50;20.40;;;;;;;21.40;35.85;96440.22;6158907;28;104705;-80
2023/01/02 07:07:25;;;;;;;21.17;19.27;;;;;;;21.37;36.51;96435.44;6166002;28;103056;-82
2023/01/02 07:10:29;;;;;;;20.73;18.87;;;;;;;21.44;35.90;96435.94;6166005;28;104253;-82
2023/01/02 07:13:34;;;;;;;20.23;18.50;;;;;;;21.29;35.64;96404.00;6167053;28;102941;-82
2023/01/02 07:16:37;;;;;;;19.50;17.80;;;;;;;21.52;35.87;96432.75;6148541;28;103540;-82
2023/01/02 07:19:40;;;;;;;20.90;18.57;;;;;;;21.62;36.42;96442.59;6172591;28;103210;-83
2023/01/02 07:22:51;;;;;;;19.70;17.90;;;;;;;21.67;36.51;96436.47;6171750;28;104727;-81
2023/01/02 07:25:55;;;;;;;19.33;17.63;;;;;;;21.73;37.21;96438.06;6162366;28;105410;-81
2023/01/02 07:28:59;;;;;;;19.27;17.37;;;;;;;21.74;37.20;96437.78;6170770;28;103189;-80
2023/01/02 07:32:03;;;;;;;19.20;17.10;;;;;;;21.74;37.25;96429.00;6170959;28;105047;-81
2023/01/02 07:35:07;;;;;;;20.83;18.73;;;;;;;21.70;38.07;96417.28;6170639;28;103089;-80
2023/01/02 07:38:11;;;;;;;21.70;19.70;;;;;;;21.88;38.08;96440.75;6161813;28;103540;-81
2023/01/02 07:41:16;;;;;;;20.43;18.40;;;;;;;21.92;38.01;96446.31;6170784;28;106524;-81
2023/01/02 07:44:21;;;;;;;20.93;18.83;;;;;;;21.88;38.26;96429.28;6164762;28;103999;-82
2023/01/02 07:47:24;;;;;;;20.37;18.27;;;;;;;21.74;37.56;96399.69;6167998;28;103453;-82
2023/01/02 07:50:27;;;;;;;21.83;19.73;;;;;;;21.82;38.54;96412.47;6158387;28;103588;-82
2023/01/02 07:53:31;;;;;;;21.27;19.17;;;;;;;21.92;39.49;96425.00;6166289;28;102814;-82
2023/01/02 07:56:35;;;;;;;22.10;19.77;;;;;;;21.81;39.32;96406.31;6170944;28;102985;-82
2023/01/02 07:59:40;;;;;;;21.57;19.30;;;;;;;22.07;38.83;96444.41;6167539;28;102854;-80
2023/01/02 08:02:48;;;;;;;22.03;19.80;;;;;;;21.78;39.28;96406.88;6168865;28;103832;-81
2023/01/02 08:05:52;;;;;;;22.73;20.33;;;;;;;22.02;39.86;96436.44;6168464;28;103154;-80
2023/01/02 08:08:55;;;;;;;23.00;20.53;;;;;;;22.00;39.37;96427.91;6167944;28;103001;-79
2023/01/02 08:11:58;;;;;;;22.63;20.37;;;;;;;22.10;39.00;96443.88;6152765;28;103775;-80
2023/01/02 08:15:03;;;;;;;25.77;20.90;;;;;;;21.88;38.98;96408.75;6159877;28;103523;-80
2023/01/02 08:18:06;;;;;;;23.10;20.70;;;;;;;22.00;39.12;96419.09;6177618;28;103101;-80
2023/01/02 08:21:10;;;;;;;23.90;21.50;;;;;;;22.00;38.91;96411.91;6170631;28;103180;-80
2023/01/02 08:24:13;;;;;;;23.70;20.30;;;;;;;22.00;39.16;96398.56;6159491;28;104540;-80
2023/01/02 08:27:16;;;;;;;23.37;19.97;;;;;;;22.23;38.71;96420.38;6166114;28;108038;-81
2023/01/02 08:30:21;;;;;;;22.70;20.30;;;;;;;22.30;39.17;96426.19;6168929;28;104575;-79
2023/01/02 08:33:25;;;;;;;22.70;19.53;;;;;;;22.33;38.96;96428.31;6166301;28;104290;-79
2023/01/02 08:36:28;;;;;;;20.77;18.70;;;;;;;22.35;38.94;96428.88;6167409;28;105252;-79
2023/01/02 08:39:31;;;;;;;21.60;19.40;;;;;;;22.38;39.60;96426.44;6174831;28;104485;-79
2023/01/02 08:42:34;;;;;;;21.57;19.33;;;;;;;22.34;39.99;96424.59;6171995;28;104310;-79
2023/01/02 08:45:38;;;;;;;21.53;19.23;;;;;;;22.33;38.69;96431.78;6165719;28;103251;-81
2023/01/02 08:48:42;;;;;;;23.67;20.03;;;;;;;22.18;39.34;96407.88;6172043;28;102852;-81
2023/01/02 08:51:45;;;;;;;21.93;19.63;;;;;;;22.21;39.14;96411.84;6169869;28;105357;-82
2023/01/02 08:54:48;;;;;;;21.57;19.37;;;;;;;22.22;39.09;96403.59;6170970;28;106840;-80
2023/01/02 08:57:51;;;;;;;22.53;20.27;;;;;;;22.05;38.64;96387.13;6155524;28;104022;-80
2023/01/02 09:00:56;;;;;;;22.20;20.00;;;;;;;22.23;38.57;96409.72;6166086;28;106453;-80
2023/01/02 09:04:00;;;;;;;20.43;18.43;;;;;;;21.96;38.33;96375.41;6147453;28;105047;-79
2023/01/02 09:07:14;;;;;;;21.47;19.17;;;;;;;21.94;38.54;96381.00;6167050;28;103404;-80
2023/01/02 09:10:20;;;;;;;23.00;20.70;;;;;;;21.91;37.89;96367.44;6157630;28;103485;-83
2023/01/02 09:13:23;;;;;;;21.30;19.30;;;;;;;22.01;38.18;96389.53;6166731;28;103617;-80
2023/01/02 09:16:29;;;;;;;21.13;18.93;;;;;;;22.18;38.43;96401.72;6167089;28;103045;-81
2023/01/02 09:19:32;;;;;;;23.33;20.83;;;;;;;22.27;38.72;96392.09;6168056;28;104495;-82
2023/01/02 09:22:36;;;;;;;29.90;23.57;;;;;;;22.32;39.47;96389.38;6164652;28;103038;-80
2023/01/02 09:25:40;;;;;;;31.83;24.00;;;;;;;22.37;39.17;96387.53;6162769;28;106317;-82
2023/01/02 09:28:43;;;;;;;37.90;27.10;;;;;;;22.38;40.04;96378.44;6179380;28;104109;-81
2023/01/02 09:31:47;;;;;;;39.10;29.77;;;;;;;22.34;39.97;96358.69;6157631;28;107095;-80
2023/01/02 09:34:51;;;;;;;41.37;30.57;;;;;;;22.47;39.78;96364.50;6162324;28;102702;-82
2023/01/02 09:37:55;;;;;;;40.77;32.23;;;;;;;22.40;39.94;96351.50;6174830;28;104279;-81
2023/01/02 09:41:00;;;;;;;46.37;33.43;;;;;;;22.44;39.78;96343.72;6169843;28;102891;-81
2023/01/02 09:44:10;;;;;;;41.10;33.00;;;;;;;22.53;40.13;96350.88;6160421;28;102722;-82
2023/01/02 09:47:17;;;;;;;44.30;35.17;;;;;;;22.30;39.91;96306.19;6165615;28;103359;-81
2023/01/02 09:50:26;;;;;;;41.83;33.90;;;;;;;22.49;39.63;96335.69;6170311;28;104221;-81
2023/01/02 09:53:30;;;;;;;41.07;34.90;;;;;;;22.44;39.52;96325.84;6158151;28;103270;-81
2023/01/02 09:56:38;;;;;;;42.77;35.17;;;;;;;22.55;39.83;96332.72;6165459;28;103045;-82
2023/01/02 09:59:50;;;;;;;43.50;36.07;;;;;;;22.03;39.78;96256.78;6168702;28;105447;-81
2023/01/02 10:03:05;;;;;;;45.33;35.80;;;;;;;21.70;39.76;96207.63;6120612;28;103467;-80
2023/01/02 10:06:17;;;;;;;39.30;34.23;;;;;;;22.03;39.92;96246.13;6114552;28;104350;-81
2023/01/02 10:09:31;;;;;;;39.73;35.50;;;;;;;21.66;39.73;96187.13;6113812;28;103118;-80
2023/01/02 10:12:42;;;;;;;39.53;33.63;;;;;;;22.55;40.03;96308.72;6123201;28;104024;-80
2023/01/02 10:15:48;;;;;;;39.87;35.53;;;;;;;22.47;39.85;96282.63;6116513;28;102731;-81
2023/01/02 10:18:55;;;;;;;43.97;36.60;;;;;;;22.32;39.54;96290.72;6084804;28;102970;-80
2023/01/02 10:22:00;;;;;;;36.40;32.70;;;;;;;21.94;36.21;96290.41;6100400;28;103140;-80
2023/01/02 10:25:12;;;;;;;32.40;29.10;;;;;;;21.83;36.42;96267.53;6108786;28;106027;-81
2023/01/02 10:28:25;;;;;;;31.63;28.30;;;;;;;22.16;35.65;96294.53;6113901;28;105055;-81
2023/01/02 10:31:31;;;;;;;29.80;27.00;;;;;;;22.25;35.52;96293.72;6114102;28;104219;-82
2023/01/02 10:34:41;;;;;;;29.17;26.10;;;;;;;22.30;35.98;96288.34;6118325;28;103103;-79
2023/01/02 10:37:45;;;;;;;28.10;25.23;;;;;;;22.10;35.87;96246.59;6116740;28;103570;-83
2023/01/02 10:40:50;;;;;;;27.43;24.87;;;;;;;22.19;36.28;96257.50;6114295;28;104263;-81
2023/01/02 10:43:57;;;;;;;30.97;27.50;;;;;;;22.37;36.29;96278.16;6096747;28;106580;-80
2023/01/02 10:47:12;;;;;;;30.63;27.37;;;;;;;22.28;36.56;96258.47;6105730;28;103031;-80
2023/01/02 10:50:21;;;;;;;28.50;25.60;;;;;;;22.49;36.56;96274.34;6117981;28;106718;-79
2023/01/02 10:53:32;;;;;;;27.70;25.00;;;;;;;22.33;36.95;96255.78;6114337;28;104023;-79
2023/01/02 10:56:40;;;;;;;27.27;24.57;;;;;;;22.52;37.08;96271.94;6118250;28;104729;-79
2023/01/02 10:59:44;;;;;;;30.17;27.37;;;;;;;22.38;37.38;96271.75;6117167;28;104276;-79
2023/01/02 11:02:53;;;;;;;31.90;29.00;;;;;;;22.15;36.98;96239.63;6157333;28;102931;-78
2023/01/02 11:05:58;;;;;;;31.73;28.77;;;;;;;22.22;37.39;96240.13;6163550;28;102932;-77
2023/01/02 11:09:23;;;;;;;30.27;27.47;;;;;;;22.36;37.00;96243.78;6165489;28;105217;-77
2023/01/02 11:12:27;;;;;;;31.70;28.27;;;;;;;22.24;37.35;96222.00;6165504;28;104361;-79
2023/01/02 11:15:33;;;;;;;31.27;28.53;;;;;;;22.46;38.03;96243.69;6178236;28;103003;-78
2023/01/02 11:18:37;;;;;;;30.60;27.43;;;;;;;22.47;38.31;96233.81;6165042;28;103189;-79
2023/01/02 11:21:42;;;;;;;28.93;26.37;;;;;;;22.35;38.69;96210.19;6162803;28;103496;-80
2023/01/02 11:24:54;;;;;;;29.50;26.90;;;;;;;22.47;39.13;96229.28;6166121;28;103049;-82
2023/01/02 11:28:03;;;;;;;30.80;27.97;;;;;;;22.32;39.65;96200.84;6162377;28;105846;-79
2023/01/02 11:31:11;;;;;;;30.27;27.40;;;;;;;22.31;39.68;96203.78;6163663;28;103246;-79
2023/01/02 11:34:21;;;;;;;30.10;27.30;;;;;;;22.36;39.31;96209.09;6162951;28;103310;-79
2023/01/02 11:37:26;;;;;;;29.43;26.77;;;;;;;22.38;39.40;96207.75;6154412;28;103354;-79
2023/01/02 11:40:30;;;;;;;29.23;26.63;;;;;;;22.23;39.27;96180.41;6166940;28;104670;-78
2023/01/02 11:43:52;;;;;;;29.60;26.90;;;;;;;21.94;39.54;96141.16;6163696;28;106045;-79
2023/01/02 11:46:56;;;;;;;29.77;27.17;;;;;;;22.15;39.01;96178.31;6160713;28;103544;-79
2023/01/02 11:50:00;;;;;;;29.07;26.30;;;;;;;22.22;38.96;96184.16;6155334;28;103454;-79
2023/01/02 11:53:15;;;;;;;28.47;25.90;;;;;;;22.30;39.23;96189.66;6170981;28;102907;-79
2023/01/02 11:56:25;;;;;;;28.03;25.50;;;;;;;22.26;38.85;96177.97;6145393;28;102849;-80
2023/01/02 11:59:36;;;;;;;28.13;25.47;;;;;;;21.65;39.20;96070.97;6159315;28;106894;-81
2023/01/02 12:02:42;;;;;;;28.17;25.53;;;;;;;22.33;38.86;96186.44;6171243;28;104227;-79
2023/01/02 12:06:02;;;;;;;27.40;24.90;;;;;;;22.30;39.02;96170.19;6192843;28;103235;-79
2023/01/02 12:09:11;;;;;;;28.97;26.37;;;;;;;22.28;39.04;96169.69;6190285;28;103206;-79
2023/01/02 12:12:32;;;;;;;27.73;25.23;;;;;;;22.30;38.86;96170.19;6161064;28;103167;-79
2023/01/02 12:15:51;;;;;;;29.03;26.27;;;;;;;22.28;39.22;96170.47;6166270;28;105538;-78
2023/01/02 12:19:38;;;;;;;27.20;24.77;;;;;;;22.29;38.77;96168.63;6167769;28;103026;-80
2023/01/02 12:22:56;;;;;;;28.60;25.90;;;;;;;22.24;38.98;96166.00;6090148;28;105031;-79
2023/01/02 12:26:10;;;;;;;29.20;26.60;;;;;;;22.23;39.20;96156.41;6067064;28;105008;-79
2023/01/02 12:29:26;;;;;;;27.30;24.90;;;;;;;22.21;39.04;96146.03;6046230;28;104631;-79
2023/01/02 12:33:22;;;;;;;28.67;26.17;;;;;;;22.16;39.25;96142.59;6078883;28;104344;-80
2023/01/02 12:36:39;;;;;;;28.50;25.80;;;;;;;22.08;39.36;96130.66;6155753;28;103433;-79
2023/01/02 12:40:09;;;;;;;30.00;27.00;;;;;;;22.02;39.14;96121.91;6169917;28;104159;-79
2023/01/02 12:43:33;;;;;;;29.20;26.80;;;;;;;21.88;39.10;96104.16;6164488;28;103574;-77
2023/01/02 12:46:53;;;;;;;28.97;26.47;;;;;;;22.14;39.22;96134.88;6165626;28;103994;-79
2023/01/02 12:50:28;;;;;;;27.37;25.07;;;;;;;22.10;39.47;96128.50;6181723;28;103111;-79
2023/01/02 12:53:46;;;;;;;27.77;25.30;;;;;;;22.04;39.50;96125.09;6156314;28;103031;-79
2023/01/02 12:57:17;;;;;;;27.87;25.53;;;;;;;21.74;39.36;96064.00;6163060;28;102980;-80
2023/01/02 13:00:49;;;;;;;28.40;25.90;;;;;;;22.23;39.89;96133.22;6149386;28;106694;-79
2023/01/02 13:04:03;;;;;;;28.13;25.80;;;;;;;21.95;40.02;96081.44;6161445;28;103360;-81
2023/01/02 13:07:13;;;;;;;27.27;24.97;;;;;;;21.85;40.30;96068.22;6161668;28;104239;-80
2023/01/02 13:10:21;;;;;;;27.67;25.30;;;;;;;21.72;39.98;96044.84;6156612;28;102751;-80
2023/01/02 13:13:32;;;;;;;26.20;24.07;;;;;;;22.22;40.15;96123.63;6180966;28;103397;-81
2023/01/02 13:16:38;;;;;;;26.00;23.70;;;;;;;21.38;40.25;95983.56;6161144;28;104218;-81
2023/01/02 13:19:48;;;;;;;27.97;24.80;;;;;;;21.39;40.43;95990.50;6161723;28;105556;-81
2023/01/02 13:23:02;;;;;;;25.33;23.13;;;;;;;22.19;40.48;96115.38;6158197;28;104065;-81
2023/01/02 13:26:08;;;;;;;25.40;23.13;;;;;;;22.15;40.60;96109.00;6173804;28;102926;-81
2023/01/02 13:29:27;;;;;;;24.40;22.30;;;;;;;22.25;40.65;96119.59;6167811;28;106441;-81
2023/01/02 13:32:32;;;;;;;25.67;23.20;;;;;;;22.32;40.39;96136.84;6180991;28;102692;-81
2023/01/02 13:35:38;;;;;;;24.50;22.40;;;;;;;22.30;40.99;96131.00;6183147;28;104612;-80
2023/01/02 13:38:43;;;;;;;24.20;22.10;;;;;;;22.17;40.81;96101.50;6183591;28;102500;-80
2023/01/02 13:45:16;;;;;;;23.80;21.70;;;;;;;22.29;40.65;96128.63;6176470;28;105352;-80
2023/01/02 13:48:29;;;;;;;22.57;20.77;;;;;;;22.13;40.56;96106.63;6183348;28;104878;-79
2023/01/02 13:51:35;;;;;;;22.73;20.73;;;;;;;22.27;40.98;96120.91;6158531;28;103727;-81
2023/01/02 13:54:38;;;;;;;23.87;21.77;;;;;;;22.05;40.65;96089.38;6159584;28;105006;-80
2023/01/02 13:57:42;;;;;;;23.63;21.53;;;;;;;22.24;41.18;96118.00;6157152;28;102825;-81
2023/01/02 14:00:47;;;;;;;24.13;22.07;;;;;;;22.24;41.23;96123.34;6159535;28;105663;-81
2023/01/02 14:04:30;;;;;;;22.73;20.83;;;;;;;22.26;41.09;96110.50;6181491;28;105743;-78
2023/01/02 14:07:46;;;;;;;25.60;23.40;;;;;;;22.10;40.97;96099.19;6156026;28;103384;-78
2023/01/02 14:10:52;;;;;;;24.97;22.77;;;;;;;22.16;40.85;96111.38;6180836;28;102809;-79
2023/01/02 14:13:56;;;;;;;25.00;22.73;;;;;;;22.09;41.42;96101.06;6181138;28;102795;-79
2023/01/02 14:17:13;;;;;;;26.07;23.77;;;;;;;22.14;41.40;96092.22;6189552;28;102571;-80
2023/01/02 14:20:23;;;;;;;25.80;23.50;;;;;;;22.27;41.34;96112.09;6154710;28;104985;-80
2023/01/02 14:23:29;;;;;;;24.00;21.97;;;;;;;22.18;41.45;96093.25;6179593;28;103800;-79